createdAt,value
2019-05-26T00:01:15.406Z,61.21
2019-05-26T00:03:49.111Z,61.25
2019-05-26T00:06:22.816Z,60.83
2019-05-26T00:08:56.598Z,60.83
2019-05-26T00:11:30.326Z,61.71
2019-05-26T00:14:04.116Z,61.59
2019-05-26T00:16:38.022Z,61.33
2019-05-26T00:19:12.370Z,61.33
2019-05-26T00:21:46.426Z,61.25
2019-05-26T00:24:20.122Z,61.22
2019-05-26T00:26:53.836Z,61.02
2019-05-26T00:29:27.685Z,61.02
2019-05-26T00:34:28.614Z,61.72
2019-05-26T00:37:02.316Z,60.73
2019-05-26T00:39:36.038Z,60.73
2019-05-26T00:42:09.783Z,63.47
2019-05-26T00:44:44.065Z,63.89
2019-05-26T00:47:17.777Z,63.89
2019-05-26T00:49:51.744Z,62.69
2019-05-26T00:52:25.494Z,63.90
2019-05-26T00:54:59.203Z,63.90
2019-05-26T00:57:32.934Z,61.82
2019-05-26T01:00:08.179Z,61.82
2019-05-26T01:02:41.908Z,63.70
2019-05-26T01:05:15.621Z,63.70
2019-05-26T01:08:05.144Z,65.52
2019-05-26T01:10:24.749Z,65.52
2019-05-26T01:12:58.463Z,65.49
2019-05-26T01:15:32.186Z,65.49
2019-05-26T01:18:05.904Z,65.82
2019-05-26T01:20:39.703Z,67.13
2019-05-26T01:23:13.400Z,67.13
2019-05-26T01:25:47.109Z,65.06
2019-05-26T01:28:22.447Z,65.47
2019-05-26T01:30:56.225Z,65.47
2019-05-26T01:33:29.968Z,64.76
2019-05-26T01:36:03.688Z,65.07
2019-05-26T01:38:37.392Z,64.20
2019-05-26T01:41:11.094Z,64.20
2019-05-26T01:43:44.832Z,64.00
2019-05-26T01:46:18.543Z,64.47
2019-05-26T01:48:52.260Z,64.47
2019-05-26T01:51:25.970Z,64.27
2019-05-26T01:54:00.142Z,63.26
2019-05-26T01:56:33.904Z,63.26
2019-05-26T01:59:07.648Z,62.89
2019-05-26T02:07:24.437Z,63.16
2019-05-26T02:10:16.512Z,63.40
2019-05-26T02:13:08.252Z,63.31
2019-05-26T02:16:00.062Z,63.31
2019-05-26T02:18:52.125Z,63.06
2019-05-26T02:21:44.234Z,63.62
2019-05-26T02:24:36.354Z,63.90
2019-05-26T02:27:28.421Z,63.90
2019-05-26T02:30:20.224Z,63.26
2019-05-26T02:33:12.112Z,64.59
2019-05-26T02:36:04.333Z,64.46
2019-05-26T02:39:02.677Z,64.42
2019-05-26T02:41:49.589Z,63.42
2019-05-26T02:44:41.386Z,64.43
2019-05-26T02:47:33.180Z,64.43
2019-05-26T02:50:25.117Z,64.30
2019-05-26T02:53:17.170Z,63.92
2019-05-26T02:56:09.305Z,63.32
2019-05-26T02:59:01.033Z,64.03
2019-05-26T03:02:02.898Z,63.70
2019-05-26T03:04:34.708Z,64.05
2019-05-26T03:07:14.257Z,65.43
2019-05-26T03:09:54.629Z,64.69
2019-05-26T03:12:34.355Z,63.38
2019-05-26T03:15:14.343Z,64.05
2019-05-26T03:17:54.342Z,63.66
2019-05-26T03:20:39.765Z,65.16
2019-05-26T03:23:19.512Z,66.07
2019-05-26T03:25:59.117Z,65.12
2019-05-26T03:28:38.934Z,65.12
2019-05-26T03:31:19.065Z,64.63
2019-05-26T03:33:59.266Z,64.02
2019-05-26T03:36:38.862Z,64.00
2019-05-26T03:39:18.948Z,64.00
2019-05-26T03:41:58.539Z,64.01
2019-05-26T03:44:38.209Z,64.41
2019-05-26T03:47:17.702Z,64.25
2019-05-26T03:49:57.147Z,63.62
2019-05-26T03:52:36.789Z,64.28
2019-05-26T03:55:16.231Z,64.17
2019-05-26T03:57:55.768Z,63.74
2019-05-26T04:00:35.673Z,62.77
2019-05-26T04:03:15.128Z,64.06
2019-05-26T04:05:54.481Z,63.69
2019-05-26T04:08:46.563Z,63.12
2019-05-26T04:11:38.623Z,63.98
2019-05-26T04:14:30.299Z,63.89
2019-05-26T04:17:22.156Z,63.49
2019-05-26T04:20:14.340Z,63.58
2019-05-26T04:23:06.283Z,64.97
2019-05-26T04:25:58.113Z,64.97
2019-05-26T04:28:49.890Z,64.17
2019-05-26T04:31:41.763Z,63.15
2019-05-26T04:34:33.591Z,63.08
2019-05-26T04:37:25.709Z,63.61
2019-05-26T04:40:26.578Z,63.61
2019-05-26T04:43:14.658Z,64.67
2019-05-26T04:46:04.623Z,64.88
2019-05-26T04:48:56.965Z,65.37
2019-05-26T04:51:49.017Z,65.37
2019-05-26T04:54:41.162Z,65.36
2019-05-26T04:57:33.397Z,65.36
2019-05-26T05:00:25.376Z,64.16
2019-05-26T05:03:17.406Z,64.16
2019-05-26T05:06:09.525Z,66.50
2019-05-26T05:09:01.872Z,67.21
2019-05-26T05:11:53.789Z,66.02
2019-05-26T05:14:45.864Z,66.02
2019-05-26T05:17:38.581Z,66.29
2019-05-26T05:20:30.670Z,66.04
2019-05-26T05:23:22.718Z,66.01
2019-05-26T05:26:14.476Z,65.02
2019-05-26T05:29:06.281Z,65.74
2019-05-26T05:31:58.446Z,66.34
2019-05-26T05:34:50.538Z,66.34
2019-05-26T05:37:42.444Z,66.43
2019-05-26T05:40:34.489Z,66.29
2019-05-26T05:43:26.323Z,67.52
2019-05-26T05:46:18.310Z,67.09
2019-05-26T05:49:10.397Z,65.87
2019-05-26T05:52:02.229Z,64.95
2019-05-26T05:54:54.130Z,66.17
2019-05-26T05:57:45.915Z,65.77
2019-05-26T06:00:38.097Z,66.10
2019-05-26T06:03:30.271Z,66.39
2019-05-26T06:06:22.309Z,65.54
2019-05-26T06:09:14.314Z,65.32
2019-05-26T06:12:06.166Z,64.31
2019-05-26T06:14:58.162Z,63.82
2019-05-26T06:17:50.229Z,64.80
2019-05-26T06:20:42.102Z,64.19
2019-05-26T06:23:36.880Z,64.42
2019-05-26T06:26:27.549Z,64.42
2019-05-26T06:29:20.038Z,64.48
2019-05-26T06:32:12.510Z,64.15
2019-05-26T06:35:04.874Z,63.49
2019-05-26T06:37:57.049Z,63.80
2019-05-26T06:40:48.784Z,64.27
2019-05-26T06:43:41.076Z,63.31
2019-05-26T06:46:33.349Z,63.31
2019-05-26T06:49:25.304Z,64.21
2019-05-26T06:52:17.318Z,63.48
2019-05-26T06:55:09.086Z,63.43
2019-05-26T06:58:00.909Z,63.43
2019-05-26T07:00:52.934Z,62.54
2019-05-26T07:03:44.702Z,62.41
2019-05-26T07:06:36.793Z,63.86
2019-05-26T07:09:28.805Z,63.64
2019-05-26T07:12:20.763Z,63.77
2019-05-26T07:15:13.817Z,63.77
2019-05-26T07:18:05.477Z,63.65
2019-05-26T07:20:57.248Z,63.01
2019-05-26T07:23:49.161Z,63.20
2019-05-26T07:26:41.334Z,62.99
2019-05-26T07:29:33.361Z,62.99
2019-05-26T07:32:25.486Z,61.59
2019-05-26T07:35:17.454Z,62.12
2019-05-26T07:38:09.535Z,62.12
2019-05-26T07:41:01.714Z,61.48
2019-05-26T07:43:53.498Z,61.23
2019-05-26T07:46:45.436Z,60.50
2019-05-26T07:49:37.687Z,61.10
2019-05-26T07:52:29.481Z,60.29
2019-05-26T07:55:21.566Z,60.21
2019-05-26T07:58:13.943Z,60.21
2019-05-26T08:01:06.060Z,59.85
2019-05-26T08:03:58.195Z,59.11
2019-05-26T08:06:50.050Z,59.11
2019-05-26T08:09:42.149Z,57.80
2019-05-26T08:12:34.234Z,56.68
2019-05-26T08:15:25.992Z,57.06
2019-05-26T08:18:18.320Z,57.06
2019-05-26T08:21:10.236Z,55.89
2019-05-26T08:24:02.526Z,56.05
2019-05-26T08:26:54.876Z,56.05
2019-05-26T08:29:46.773Z,54.38
2019-05-26T08:32:38.691Z,54.38
2019-05-26T08:35:30.852Z,55.23
2019-05-26T08:38:23.747Z,54.47
2019-05-26T08:41:15.791Z,54.47
2019-05-26T08:44:08.044Z,54.24
2019-05-26T08:47:00.028Z,52.86
2019-05-26T08:49:52.165Z,53.79
2019-05-26T08:52:44.433Z,54.69
2019-05-26T08:55:36.349Z,52.96
2019-05-26T08:58:29.425Z,52.44
2019-05-26T09:01:21.538Z,52.44
2019-05-26T09:04:13.589Z,52.32
2019-05-26T09:07:05.763Z,51.34
2019-05-26T09:09:57.842Z,51.34
2019-05-26T09:13:00.099Z,52.42
2019-05-26T09:15:43.647Z,52.17
2019-05-26T09:18:35.234Z,52.17
2019-05-26T09:21:27.434Z,51.67
2019-05-26T09:24:19.458Z,51.82
2019-05-26T09:27:11.536Z,51.82
2019-05-26T09:30:04.989Z,51.90
2019-05-26T09:32:56.845Z,50.74
2019-05-26T09:35:49.024Z,50.04
2019-05-26T09:38:40.909Z,50.04
2019-05-26T09:41:32.755Z,51.19
2019-05-26T09:44:24.655Z,48.82
2019-05-26T09:47:16.774Z,48.96
2019-05-26T09:50:08.705Z,49.44
2019-05-26T09:53:00.748Z,49.37
2019-05-26T09:55:52.455Z,48.52
2019-05-26T09:58:44.361Z,48.17
2019-05-26T10:01:36.452Z,49.06
2019-05-26T10:04:28.510Z,48.74
2019-05-26T10:07:20.280Z,49.38
2019-05-26T10:10:12.339Z,49.38
2019-05-26T10:13:04.324Z,48.92
2019-05-26T10:15:56.094Z,48.92
2019-05-26T10:18:47.958Z,47.34
2019-05-26T10:21:39.861Z,47.38
2019-05-26T10:24:32.147Z,45.86
2019-05-26T10:27:23.941Z,45.99
2019-05-26T10:30:16.085Z,45.99
2019-05-26T10:33:08.167Z,47.04
2019-05-26T10:36:00.127Z,46.41
2019-05-26T10:38:51.900Z,46.41
2019-05-26T10:41:43.763Z,46.83
2019-05-26T10:44:35.554Z,47.43
2019-05-26T10:47:27.559Z,47.16
2019-05-26T10:50:19.407Z,47.16
2019-05-26T10:53:11.050Z,47.93
2019-05-26T10:56:02.847Z,46.41
2019-05-26T10:58:54.597Z,46.41
2019-05-26T11:01:46.281Z,44.93
2019-05-26T11:04:38.307Z,44.93
2019-05-26T11:07:30.112Z,46.35
2019-05-26T11:10:22.157Z,46.35
2019-05-26T11:13:13.909Z,45.77
2019-05-26T11:16:06.027Z,46.62
2019-05-26T11:18:57.958Z,46.53
2019-05-26T11:21:49.689Z,45.85
2019-05-26T11:24:41.881Z,46.59
2019-05-26T11:27:33.907Z,45.95
2019-05-26T11:30:25.859Z,45.26
2019-05-26T11:33:17.640Z,45.26
2019-05-26T11:36:09.509Z,45.58
2019-05-26T11:39:01.550Z,45.62
2019-05-26T11:41:55.203Z,45.62
2019-05-26T11:44:47.181Z,45.93
2019-05-26T11:47:38.972Z,46.10
2019-05-26T11:50:30.982Z,46.10
2019-05-26T11:53:23.058Z,46.23
2019-05-26T11:56:14.849Z,45.65
2019-05-26T11:59:06.904Z,45.59
2019-05-26T12:01:58.784Z,45.89
2019-05-26T12:04:50.913Z,45.26
2019-05-26T12:07:42.800Z,46.07
2019-05-26T12:10:34.930Z,45.35
2019-05-26T12:13:27.114Z,45.67
2019-05-26T12:16:19.147Z,45.74
2019-05-26T12:19:11.303Z,44.45
2019-05-26T12:22:03.570Z,44.56
2019-05-26T12:24:55.460Z,46.37
2019-05-26T12:27:47.847Z,46.37
2019-05-26T12:30:40.033Z,45.46
2019-05-26T12:33:32.174Z,45.90
2019-05-26T12:36:24.442Z,45.38
2019-05-26T12:39:16.530Z,45.38
2019-05-26T12:42:08.793Z,45.44
2019-05-26T12:45:00.945Z,45.44
2019-05-26T12:47:53.162Z,46.16
2019-05-26T12:50:45.250Z,46.07
2019-05-26T12:53:37.514Z,46.07
2019-05-26T12:56:29.506Z,45.71
2019-05-26T12:59:21.563Z,46.21
2019-05-26T13:02:13.515Z,46.43
2019-05-26T13:05:06.537Z,46.69
2019-05-26T13:07:58.167Z,46.69
2019-05-26T13:10:49.930Z,47.89
2019-05-26T13:13:41.921Z,45.90
2019-05-26T13:16:35.946Z,45.99
2019-05-26T13:19:28.091Z,46.07
2019-05-26T13:22:19.817Z,45.57
2019-05-26T13:25:12.433Z,46.73
2019-05-26T13:28:04.862Z,46.44
2019-05-26T13:30:57.552Z,47.07
2019-05-26T13:33:49.216Z,46.68
2019-05-26T13:36:40.974Z,46.42
2019-05-26T13:39:32.821Z,47.20
2019-05-26T13:42:24.795Z,47.20
2019-05-26T13:45:22.908Z,47.00
2019-05-26T13:48:10.355Z,47.00
2019-05-26T13:51:02.503Z,47.76
2019-05-26T13:53:54.495Z,47.76
2019-05-26T13:56:46.333Z,47.76
2019-05-26T13:59:38.503Z,47.89
2019-05-26T14:02:30.698Z,48.63
2019-05-26T14:05:22.798Z,49.07
2019-05-26T14:08:14.650Z,49.07
2019-05-26T14:11:06.455Z,49.59
2019-05-26T14:13:58.511Z,49.49
2019-05-26T14:16:50.272Z,49.49
2019-05-26T14:19:42.728Z,49.61
2019-05-26T14:22:34.601Z,49.61
2019-05-26T14:25:26.436Z,49.20
2019-05-26T14:28:18.112Z,48.92
2019-05-26T14:31:09.942Z,48.90
2019-05-26T14:34:01.633Z,48.92
2019-05-26T14:36:53.609Z,48.43
2019-05-26T14:39:45.686Z,49.23
2019-05-26T14:42:37.667Z,49.23
2019-05-26T14:45:29.400Z,49.55
2019-05-26T14:48:21.218Z,49.79
2019-05-26T14:51:13.792Z,49.47
2019-05-26T14:54:05.977Z,49.26
2019-05-26T14:56:58.120Z,50.43
2019-05-26T14:59:50.317Z,50.94
2019-05-26T15:02:42.593Z,50.94
2019-05-26T15:05:34.749Z,50.84
2019-05-26T15:08:26.553Z,51.04
2019-05-26T15:11:18.783Z,50.57
2019-05-26T15:14:11.067Z,50.09
2019-05-26T15:17:03.171Z,50.09
2019-05-26T15:19:55.417Z,51.46
2019-05-26T15:22:47.861Z,50.65
2019-05-26T15:25:39.838Z,50.56
2019-05-26T15:28:31.781Z,50.56
2019-05-26T15:31:24.153Z,50.69
2019-05-26T15:34:16.190Z,50.41
2019-05-26T15:37:08.486Z,50.44
2019-05-26T15:40:00.571Z,49.67
2019-05-26T15:42:52.525Z,49.63
2019-05-26T15:45:44.733Z,50.27
2019-05-26T15:48:37.019Z,51.01
2019-05-26T15:51:29.164Z,51.01
2019-05-26T15:54:21.339Z,51.53
2019-05-26T15:57:13.996Z,51.53
2019-05-26T16:00:07.552Z,51.37
2019-05-26T16:02:59.566Z,51.85
2019-05-26T16:05:51.411Z,52.31
2019-05-26T16:08:43.481Z,52.31
2019-05-26T16:11:35.523Z,51.64
2019-05-26T16:14:27.227Z,51.64
2019-05-26T16:17:20.445Z,51.82
2019-05-26T16:20:14.214Z,51.36
2019-05-26T16:23:08.742Z,51.31
2019-05-26T16:25:59.865Z,50.92
2019-05-26T16:28:51.713Z,50.97
2019-05-26T16:31:43.815Z,50.97
2019-05-26T16:34:35.904Z,51.37
2019-05-26T16:37:27.730Z,51.45
2019-05-26T16:40:19.596Z,51.93
2019-05-26T16:43:11.593Z,52.52
2019-05-26T16:46:03.956Z,52.52
2019-05-26T16:48:56.177Z,52.16
2019-05-26T16:51:48.217Z,51.72
2019-05-26T16:54:40.042Z,51.72
2019-05-26T16:57:31.847Z,51.71
2019-05-26T17:00:24.044Z,53.08
2019-05-26T17:03:15.824Z,53.03
2019-05-26T17:06:08.383Z,53.03
2019-05-26T17:09:00.784Z,52.66
2019-05-26T17:11:52.756Z,53.37
2019-05-26T17:14:45.037Z,52.80
2019-05-26T17:17:37.372Z,52.76
2019-05-26T17:20:29.591Z,52.76
2019-05-26T17:26:13.365Z,53.05
2019-05-26T17:29:05.469Z,53.24
2019-05-26T17:31:57.519Z,53.90
2019-05-26T17:34:49.736Z,53.88
2019-05-26T17:37:41.838Z,53.33
2019-05-26T17:40:33.714Z,53.33
2019-05-26T17:43:25.625Z,52.99
2019-05-26T17:46:17.713Z,53.17
2019-05-26T17:49:09.969Z,53.50
2019-05-26T17:52:01.806Z,53.50
2019-05-26T17:54:53.959Z,53.85
2019-05-26T17:57:45.920Z,52.88
2019-05-26T18:00:37.989Z,52.88
2019-05-26T18:03:30.269Z,53.83
2019-05-26T18:06:22.187Z,53.83
2019-05-26T18:09:14.383Z,53.43
2019-05-26T18:12:06.522Z,52.78
2019-05-26T18:14:58.623Z,52.78
2019-05-26T18:17:50.741Z,52.58
2019-05-26T18:20:42.640Z,53.84
2019-05-26T18:23:34.794Z,53.84
2019-05-26T18:26:27.251Z,53.77
2019-05-26T18:29:19.193Z,53.79
2019-05-26T18:32:11.317Z,54.11
2019-05-26T18:35:07.544Z,53.71
2019-05-26T18:37:59.686Z,53.71
2019-05-26T18:40:51.507Z,53.82
2019-05-26T18:43:43.629Z,53.84
2019-05-26T18:46:35.427Z,53.24
2019-05-26T18:49:27.229Z,53.49
2019-05-26T18:52:19.051Z,52.97
2019-05-26T18:55:11.029Z,52.38
2019-05-26T18:58:03.185Z,52.61
2019-05-26T19:00:54.952Z,52.06
2019-05-26T19:03:46.791Z,52.31
2019-05-26T19:06:38.556Z,51.73
2019-05-26T19:09:30.314Z,51.97
2019-05-26T19:12:22.471Z,51.97
2019-05-26T19:15:14.581Z,52.21
2019-05-26T19:18:19.334Z,52.14
2019-05-26T19:21:00.724Z,52.52
2019-05-26T19:23:52.532Z,53.32
2019-05-26T19:26:44.349Z,53.38
2019-05-26T19:29:36.111Z,53.07
2019-05-26T19:32:27.973Z,53.27
2019-05-26T19:35:19.845Z,53.48
2019-05-26T19:38:11.799Z,54.24
2019-05-26T19:41:03.896Z,54.34
2019-05-26T19:43:56.027Z,53.94
2019-05-26T19:46:47.885Z,53.94
2019-05-26T19:49:40.204Z,52.14
2019-05-26T19:52:32.339Z,52.41
2019-05-26T19:55:24.200Z,52.41
2019-05-26T19:58:16.163Z,52.54
2019-05-26T20:01:08.501Z,52.96
2019-05-26T20:04:00.591Z,52.88
2019-05-26T20:06:52.751Z,52.64
2019-05-26T20:09:45.375Z,52.64
2019-05-26T20:12:37.838Z,52.16
2019-05-26T20:15:30.020Z,52.87
2019-05-26T20:18:22.344Z,53.05
2019-05-26T20:21:14.698Z,53.04
2019-05-26T20:24:06.836Z,53.04
2019-05-26T20:26:58.802Z,54.15
2019-05-26T20:29:50.731Z,54.15
2019-05-26T20:32:42.852Z,54.27
2019-05-26T20:35:34.689Z,53.60
2019-05-26T20:38:26.650Z,53.80
2019-05-26T20:41:18.854Z,55.01
2019-05-26T20:44:10.855Z,55.11
2019-05-26T20:47:02.925Z,55.11
2019-05-26T20:49:54.793Z,56.22
2019-05-26T20:52:46.881Z,56.22
2019-05-26T20:55:39.041Z,56.95
2019-05-26T20:58:31.142Z,57.69
2019-05-26T21:01:23.113Z,57.69
2019-05-26T21:04:15.254Z,57.85
2019-05-26T21:07:07.299Z,58.32
2019-05-26T21:09:59.239Z,57.95
2019-05-26T21:12:51.281Z,57.55
2019-05-26T21:15:43.255Z,57.47
2019-05-26T21:18:35.175Z,57.76
2019-05-26T21:21:27.350Z,57.76
2019-05-26T21:24:19.574Z,58.80
2019-05-26T21:27:11.415Z,58.60
2019-05-26T21:30:05.480Z,58.60
2019-05-26T21:32:57.594Z,58.70
2019-05-26T21:35:49.799Z,59.48
2019-05-26T21:38:41.967Z,59.07
2019-05-26T21:41:33.937Z,59.07
2019-05-26T21:44:25.767Z,59.26
2019-05-26T21:47:17.656Z,59.31
2019-05-26T21:50:09.404Z,58.93
2019-05-26T21:53:01.683Z,58.93
2019-05-26T21:55:53.636Z,58.75
2019-05-26T21:58:45.492Z,58.86
2019-05-26T22:01:37.544Z,59.57
2019-05-26T22:04:30.384Z,59.57
2019-05-26T22:07:22.500Z,58.23
2019-05-26T22:10:14.904Z,58.23
2019-05-26T22:13:06.794Z,59.11
2019-05-26T22:15:58.655Z,60.36
2019-05-26T22:18:50.424Z,61.75
2019-05-26T22:21:42.440Z,61.75
2019-05-26T22:24:34.352Z,62.40
2019-05-26T22:27:26.119Z,62.93
2019-05-26T22:30:17.911Z,63.76
2019-05-26T22:33:09.664Z,64.72
2019-05-26T22:36:01.781Z,65.49
2019-05-26T22:38:53.867Z,67.38
2019-05-26T22:41:46.028Z,67.38
2019-05-26T22:44:38.287Z,69.81
2019-05-26T22:47:30.038Z,69.81
2019-05-26T22:50:22.117Z,71.16
2019-05-26T22:53:13.979Z,71.08
2019-05-26T22:56:05.696Z,72.23
2019-05-26T22:58:57.786Z,73.35
2019-05-26T23:01:49.862Z,74.00
2019-05-26T23:04:41.729Z,75.75
2019-05-26T23:07:33.630Z,75.58
2019-05-26T23:10:25.807Z,76.47
2019-05-26T23:13:17.890Z,77.93
2019-05-26T23:16:09.857Z,78.31
2019-05-26T23:19:18.018Z,78.31
2019-05-26T23:21:55.843Z,79.27
2019-05-26T23:24:48.115Z,79.95
2019-05-26T23:27:40.490Z,79.95
2019-05-26T23:30:32.431Z,81.16
2019-05-26T23:33:24.564Z,80.48
2019-05-26T23:36:16.775Z,80.23
2019-05-26T23:39:08.877Z,80.42
2019-05-26T23:42:01.088Z,80.29
2019-05-26T23:44:53.086Z,81.22
2019-05-26T23:47:45.140Z,80.69
2019-05-26T23:50:36.968Z,80.96
2019-05-26T23:53:28.955Z,79.37
2019-05-26T23:56:20.852Z,79.70
2019-05-26T23:59:13.788Z,79.70
